Time;durP1;ratioP1;P1;durP2;ratioP2;P2;SDS_P1;SDS_P2;PMS_P1;PMS_P2;Temp;Humidity;BMP_temperature;BMP_pressure;BME280_temperature;BME280_humidity;BME280_pressure;Samples;Min_cycle;Max_cycle;Signal;HPM_P1;HPM_P2
2024/01/27 00:00:42;;;;;;;12.73;7.07;;;2.60;99.90;;;;;;4984862;28;20423;-61
2024/01/27 00:03:08;;;;;;;20.07;7.03;;;2.60;99.90;;;;;;4987497;28;20277;-62
2024/01/27 00:05:33;;;;;;;12.37;7.27;;;2.60;99.90;;;;;;4984325;28;20192;-61
2024/01/27 00:07:59;;;;;;;25.10;9.33;;;2.50;99.90;;;;;;4979460;28;20178;-61
2024/01/27 00:10:24;;;;;;;15.73;8.17;;;2.50;99.90;;;;;;4977401;28;20177;-61
2024/01/27 00:12:50;;;;;;;14.33;7.20;;;2.50;99.90;;;;;;4986302;28;20189;-61
2024/01/27 00:15:16;;;;;;;13.47;7.00;;;2.40;99.90;;;;;;4982988;28;20279;-61
2024/01/27 00:17:41;;;;;;;17.40;7.50;;;2.40;99.90;;;;;;4987839;28;20750;-61
2024/01/27 00:20:08;;;;;;;16.30;8.77;;;2.40;99.90;;;;;;4985382;28;20193;-61
2024/01/27 00:22:33;;;;;;;20.73;8.90;;;2.40;99.90;;;;;;4984809;28;20257;-60
2024/01/27 00:24:59;;;;;;;11.97;7.27;;;2.40;99.90;;;;;;4986127;28;20492;-61
2024/01/27 00:27:24;;;;;;;12.73;7.20;;;2.30;99.90;;;;;;4989026;28;20727;-61
2024/01/27 00:29:50;;;;;;;11.30;6.53;;;2.30;99.90;;;;;;4982400;28;20207;-61
2024/01/27 00:32:15;;;;;;;14.43;6.03;;;2.30;99.90;;;;;;4988772;28;20769;-61
2024/01/27 00:34:41;;;;;;;16.20;7.57;;;2.20;99.90;;;;;;4982907;28;20180;-61
2024/01/27 00:37:07;;;;;;;9.30;5.83;;;2.20;99.90;;;;;;4988201;28;20197;-60
2024/01/27 00:39:32;;;;;;;11.20;6.47;;;2.20;99.90;;;;;;4988471;28;20196;-61
2024/01/27 00:41:59;;;;;;;13.27;6.10;;;2.20;99.90;;;;;;4989220;28;20200;-61
2024/01/27 00:44:24;;;;;;;11.30;5.97;;;2.20;99.90;;;;;;4985660;28;20431;-61
2024/01/27 00:46:50;;;;;;;11.37;6.10;;;2.20;99.90;;;;;;4988515;28;20441;-61
2024/01/27 00:49:16;;;;;;;9.20;5.80;;;2.20;99.90;;;;;;4988790;28;20607;-60
2024/01/27 00:51:41;;;;;;;11.30;5.90;;;2.20;99.90;;;;;;4988705;28;20646;-60
2024/01/27 00:54:07;;;;;;;10.90;5.50;;;2.20;99.90;;;;;;4986117;28;20184;-61
2024/01/27 00:56:32;;;;;;;9.17;4.83;;;2.10;99.90;;;;;;4985647;28;20199;-61
2024/01/27 00:58:58;;;;;;;9.80;5.50;;;2.10;99.90;;;;;;4984976;28;20255;-61
2024/01/27 01:01:23;;;;;;;9.50;5.63;;;2.10;99.90;;;;;;4987158;28;20169;-61
2024/01/27 01:03:49;;;;;;;11.43;6.60;;;2.10;99.90;;;;;;4984777;28;20177;-60
2024/01/27 01:06:15;;;;;;;9.27;5.80;;;2.00;99.90;;;;;;4987781;28;20211;-60
2024/01/27 01:08:40;;;;;;;8.50;5.60;;;2.00;99.90;;;;;;4982459;28;20248;-60
2024/01/27 01:11:06;;;;;;;13.77;5.60;;;2.00;99.90;;;;;;4989153;28;20275;-61
2024/01/27 01:13:31;;;;;;;7.20;5.00;;;1.90;99.90;;;;;;4986863;28;20176;-60
2024/01/27 01:15:57;;;;;;;6.03;4.40;;;1.90;99.90;;;;;;4986661;28;20258;-58
2024/01/27 01:18:22;;;;;;;9.40;5.13;;;1.90;99.90;;;;;;4986857;28;20216;-61
2024/01/27 01:20:48;;;;;;;8.97;5.20;;;1.80;99.90;;;;;;4987164;28;20186;-60
2024/01/27 01:23:14;;;;;;;6.23;4.30;;;1.80;99.90;;;;;;4991220;28;20169;-60
2024/01/27 01:25:39;;;;;;;9.97;4.70;;;1.80;99.90;;;;;;4987059;28;20553;-59
2024/01/27 01:28:05;;;;;;;5.37;4.43;;;1.80;99.90;;;;;;4987951;28;20248;-61
2024/01/27 01:30:31;;;;;;;7.60;4.80;;;1.80;99.90;;;;;;4988112;28;20808;-60
2024/01/27 01:32:56;;;;;;;12.90;5.67;;;1.70;99.90;;;;;;4987141;28;20172;-60
2024/01/27 01:35:22;;;;;;;8.87;4.83;;;1.70;99.90;;;;;;4984812;28;20606;-61
2024/01/27 01:37:50;;;;;;;7.53;4.80;;;1.70;99.90;;;;;;4983311;28;20211;-60
2024/01/27 01:40:16;;;;;;;12.23;4.83;;;1.70;99.90;;;;;;4988190;28;20240;-61
2024/01/27 01:42:42;;;;;;;21.17;6.70;;;1.70;99.90;;;;;;4987853;28;20845;-61
2024/01/27 01:45:10;;;;;;;16.13;5.90;;;1.60;99.90;;;;;;4988880;28;20177;-61
2024/01/27 01:47:36;;;;;;;7.40;4.73;;;1.60;99.90;;;;;;4973334;28;20178;-61
2024/01/27 01:50:02;;;;;;;7.40;4.93;;;1.60;99.90;;;;;;4982626;28;20974;-61
2024/01/27 01:52:28;;;;;;;9.53;5.20;;;1.60;99.90;;;;;;4989102;28;20272;-61
2024/01/27 01:54:54;;;;;;;6.57;5.10;;;1.70;99.90;;;;;;4988529;28;20524;-61
2024/01/27 01:57:19;;;;;;;8.83;5.30;;;1.70;99.90;;;;;;4987591;28;20702;-61
2024/01/27 01:59:45;;;;;;;8.87;5.30;;;1.70;99.90;;;;;;4987009;28;20255;-61
2024/01/27 02:02:12;;;;;;;10.00;5.07;;;1.70;99.90;;;;;;4988836;28;20203;-61
2024/01/27 02:04:45;;;;;;;5.93;5.20;;;1.70;99.90;;;;;;4983061;28;20579;-61
2024/01/27 02:07:11;;;;;;;8.97;4.80;;;1.70;99.90;;;;;;4983570;28;20511;-61
2024/01/27 02:09:37;;;;;;;6.73;4.97;;;1.70;99.90;;;;;;4986013;28;20450;-61
2024/01/27 02:12:04;;;;;;;6.27;4.60;;;1.60;99.90;;;;;;4985521;28;20488;-61
2024/01/27 02:14:30;;;;;;;7.37;5.03;;;1.60;99.90;;;;;;4988958;28;20197;-60
2024/01/27 02:16:56;;;;;;;79.33;8.47;;;1.60;99.90;;;;;;4984576;28;20477;-61
2024/01/27 02:19:22;;;;;;;7.73;4.90;;;1.60;99.90;;;;;;4987349;28;20432;-61
2024/01/27 02:21:47;;;;;;;10.80;6.37;;;1.50;99.90;;;;;;4987680;28;20437;-60
2024/01/27 02:24:13;;;;;;;63.33;7.90;;;1.50;99.90;;;;;;4988827;28;20204;-61
2024/01/27 02:26:38;;;;;;;16.20;5.53;;;1.50;99.90;;;;;;4982843;28;20238;-61
2024/01/27 02:29:04;;;;;;;11.93;5.40;;;1.50;99.90;;;;;;4982381;28;20212;-62
2024/01/27 02:31:30;;;;;;;109.80;9.03;;;1.40;99.90;;;;;;4984262;28;20181;-61
2024/01/27 02:33:55;;;;;;;160.47;11.10;;;1.40;99.90;;;;;;4985586;28;20210;-61
2024/01/27 02:36:21;;;;;;;387.27;20.70;;;1.30;99.90;;;;;;4986138;28;20211;-61
2024/01/27 02:38:47;;;;;;;44.73;7.33;;;1.30;99.90;;;;;;4984841;28;20209;-60
2024/01/27 02:41:12;;;;;;;51.23;7.33;;;1.20;99.90;;;;;;4982384;28;20181;-61
2024/01/27 02:43:38;;;;;;;167.97;12.23;;;1.20;99.90;;;;;;4985920;28;20852;-61
2024/01/27 02:46:09;;;;;;;261.20;14.90;;;1.20;99.90;;;;;;4983516;28;20616;-61
2024/01/27 02:48:34;;;;;;;89.40;10.23;;;1.10;99.90;;;;;;4982320;28;20207;-60
2024/01/27 02:51:02;;;;;;;238.40;14.90;;;1.10;99.90;;;;;;4987488;28;20450;-60
2024/01/27 02:53:28;;;;;;;170.80;11.37;;;1.10;99.90;;;;;;4982712;28;20181;-61
2024/01/27 02:55:53;;;;;;;54.50;6.97;;;1.10;99.90;;;;;;4988040;28;21009;-61
2024/01/27 02:58:19;;;;;;;270.57;15.17;;;1.10;99.90;;;;;;4985462;28;20193;-61
2024/01/27 03:00:44;;;;;;;190.30;11.37;;;1.10;99.90;;;;;;4988798;28;20192;-60
2024/01/27 03:03:10;;;;;;;39.07;5.80;;;1.10;99.90;;;;;;4979301;28;20985;-60
2024/01/27 03:05:36;;;;;;;22.93;6.50;;;1.10;99.90;;;;;;4986973;28;20179;-60
2024/01/27 03:08:01;;;;;;;19.17;5.77;;;1.10;99.90;;;;;;4980152;28;20683;-61
2024/01/27 03:10:27;;;;;;;50.57;6.03;;;1.10;99.90;;;;;;4984604;28;20242;-60
2024/01/27 03:12:53;;;;;;;67.93;6.90;;;1.10;99.90;;;;;;4981047;28;20173;-61
2024/01/27 03:15:18;;;;;;;94.33;8.50;;;1.10;99.90;;;;;;4987077;28;20267;-60
2024/01/27 03:17:44;;;;;;;43.13;7.40;;;1.10;99.90;;;;;;4987093;28;20710;-60
2024/01/27 03:20:10;;;;;;;22.33;6.50;;;1.10;99.90;;;;;;4982574;28;20188;-61
2024/01/27 03:22:35;;;;;;;13.20;6.30;;;1.10;99.90;;;;;;4982840;28;20173;-61
2024/01/27 03:25:01;;;;;;;6.93;4.80;;;1.10;99.90;;;;;;4985523;28;20184;-61
2024/01/27 03:27:26;;;;;;;10.00;5.40;;;1.10;99.90;;;;;;4982056;28;20176;-60
2024/01/27 03:29:52;;;;;;;16.67;5.60;;;1.20;99.90;;;;;;4983259;28;20207;-61
2024/01/27 03:32:17;;;;;;;15.80;5.63;;;1.20;99.90;;;;;;4979614;28;20186;-60
2024/01/27 03:34:46;;;;;;;9.70;5.33;;;1.30;99.90;;;;;;4987037;28;20176;-60
2024/01/27 03:37:12;;;;;;;79.30;6.70;;;1.30;99.90;;;;;;4978061;28;20283;-57
2024/01/27 03:39:37;;;;;;;28.73;6.00;;;1.30;99.90;;;;;;4987355;28;20927;-61
2024/01/27 03:42:03;;;;;;;16.77;6.10;;;1.30;99.90;;;;;;4984555;28;20192;-61
2024/01/27 03:44:29;;;;;;;22.83;6.20;;;1.30;99.90;;;;;;4987876;28;20168;-60
2024/01/27 03:46:54;;;;;;;73.17;7.93;;;1.30;99.90;;;;;;4982893;28;20185;-61
2024/01/27 03:49:20;;;;;;;116.20;9.97;;;1.30;99.90;;;;;;4986609;28;20201;-61
2024/01/27 03:51:45;;;;;;;38.43;7.23;;;1.30;99.90;;;;;;4980434;28;20519;-60
2024/01/27 03:54:11;;;;;;;53.17;7.77;;;1.20;99.90;;;;;;4980532;28;20176;-61
2024/01/27 03:56:36;;;;;;;24.13;6.30;;;1.20;99.90;;;;;;4984676;28;20209;-60
2024/01/27 03:59:03;;;;;;;52.00;6.57;;;1.20;99.90;;;;;;4982822;28;20200;-60
2024/01/27 04:01:29;;;;;;;52.23;7.80;;;1.20;99.90;;;;;;4987573;28;20199;-60
2024/01/27 04:03:54;;;;;;;20.73;7.47;;;1.20;99.90;;;;;;4987501;28;20438;-60
2024/01/27 04:06:20;;;;;;;96.57;10.00;;;1.20;99.90;;;;;;4989355;28;20170;-62
2024/01/27 04:08:45;;;;;;;69.03;8.53;;;1.20;99.90;;;;;;4992134;28;20206;-60
2024/01/27 04:11:22;;;;;;;24.30;7.60;;;1.20;99.90;;;;;;4987012;28;20185;-61
2024/01/27 04:13:50;;;;;;;77.83;9.87;;;1.20;99.90;;;;;;4990106;28;20187;-61
2024/01/27 04:16:16;;;;;;;77.70;11.17;;;1.30;99.90;;;;;;4986656;28;20467;-63
2024/01/27 04:18:42;;;;;;;38.83;8.20;;;1.30;99.90;;;;;;4990931;28;20420;-62
2024/01/27 04:21:07;;;;;;;52.17;7.87;;;1.30;99.90;;;;;;4990577;28;20188;-60
2024/01/27 04:23:33;;;;;;;27.47;7.97;;;1.30;99.90;;;;;;4989944;28;20435;-61
2024/01/27 04:25:59;;;;;;;77.87;9.80;;;1.30;99.90;;;;;;4983564;28;20256;-63
2024/01/27 04:28:25;;;;;;;187.57;12.13;;;1.30;99.90;;;;;;4985647;28;20202;-61
2024/01/27 04:30:50;;;;;;;56.80;8.57;;;1.40;99.90;;;;;;4993100;28;20783;-63
2024/01/27 04:33:16;;;;;;;123.23;13.07;;;1.40;99.90;;;;;;4989403;28;20182;-61
2024/01/27 04:35:41;;;;;;;164.17;13.73;;;1.40;99.90;;;;;;4989374;28;20190;-62
2024/01/27 04:38:10;;;;;;;157.53;16.00;;;1.40;99.90;;;;;;4988156;28;20205;-62
2024/01/27 04:40:35;;;;;;;158.97;15.80;;;1.40;99.90;;;;;;4989249;28;20802;-61
2024/01/27 04:43:01;;;;;;;200.03;15.23;;;1.40;99.90;;;;;;4987526;28;20438;-61
2024/01/27 04:45:27;;;;;;;92.13;9.90;;;1.40;99.90;;;;;;4991171;28;20524;-62
2024/01/27 04:47:53;;;;;;;111.43;12.80;;;1.40;99.90;;;;;;4986967;28;20177;-61
2024/01/27 04:50:19;;;;;;;179.60;15.57;;;1.40;99.90;;;;;;4990415;28;20200;-62
2024/01/27 04:52:45;;;;;;;106.13;14.57;;;1.40;99.90;;;;;;4988220;28;20571;-63
2024/01/27 04:55:11;;;;;;;115.77;11.93;;;1.30;99.90;;;;;;4987417;28;20519;-61
2024/01/27 04:57:37;;;;;;;156.23;13.50;;;1.30;99.90;;;;;;4989759;28;20207;-63
2024/01/27 05:00:07;;;;;;;145.83;13.50;;;1.30;99.90;;;;;;4988012;28;20262;-62
2024/01/27 05:02:32;;;;;;;153.30;14.43;;;1.30;99.90;;;;;;4984856;28;20183;-63
2024/01/27 05:04:58;;;;;;;164.60;13.70;;;1.40;99.90;;;;;;4985896;28;20430;-61
2024/01/27 05:07:23;;;;;;;77.93;9.40;;;1.30;99.90;;;;;;4986820;28;20176;-61
2024/01/27 05:09:49;;;;;;;86.47;10.03;;;1.30;99.90;;;;;;4990113;28;20256;-61
2024/01/27 05:12:15;;;;;;;59.03;9.70;;;1.30;99.90;;;;;;4988164;28;20262;-61
2024/01/27 05:14:45;;;;;;;229.90;14.17;;;1.30;99.90;;;;;;4988847;28;20183;-62
2024/01/27 05:17:10;;;;;;;241.37;16.20;;;1.20;99.90;;;;;;4986553;28;20280;-61
2024/01/27 05:19:36;;;;;;;82.07;9.30;;;1.20;99.90;;;;;;4985382;28;20639;-62
2024/01/27 05:22:01;;;;;;;104.83;11.23;;;1.20;99.90;;;;;;4990144;28;20182;-59
2024/01/27 05:24:27;;;;;;;162.13;11.20;;;1.20;99.90;;;;;;4988225;28;20181;-61
2024/01/27 05:26:53;;;;;;;148.07;10.63;;;1.10;99.90;;;;;;4985287;28;20180;-61
2024/01/27 05:29:18;;;;;;;158.23;12.37;;;1.10;99.90;;;;;;4989929;28;20296;-60
2024/01/27 05:31:44;;;;;;;171.63;12.43;;;1.10;99.90;;;;;;4988198;28;20177;-61
2024/01/27 05:34:11;;;;;;;89.90;8.67;;;1.00;99.90;;;;;;4984870;28;20178;-61
2024/01/27 05:36:36;;;;;;;79.43;8.40;;;1.00;99.90;;;;;;4989445;28;20196;-62
2024/01/27 05:39:04;;;;;;;224.67;15.03;;;1.00;99.90;;;;;;4986675;28;20457;-61
2024/01/27 05:41:30;;;;;;;124.33;10.80;;;0.90;99.90;;;;;;4989346;28;20264;-61
2024/01/27 05:43:59;;;;;;;14.43;8.07;;;0.90;99.90;;;;;;4986249;28;20864;-63
2024/01/27 05:46:25;;;;;;;20.33;7.80;;;1.00;99.90;;;;;;4983236;28;20598;-60
2024/01/27 05:48:53;;;;;;;142.60;12.13;;;1.00;99.90;;;;;;4988298;28;20440;-61
2024/01/27 05:51:19;;;;;;;325.57;16.80;;;1.00;99.90;;;;;;4989049;28;20544;-61
2024/01/27 05:53:45;;;;;;;124.23;9.97;;;1.00;99.90;;;;;;4988935;28;20438;-61
2024/01/27 05:56:11;;;;;;;133.00;10.53;;;0.90;99.90;;;;;;4989496;28;20459;-61
2024/01/27 05:58:37;;;;;;;83.10;9.37;;;0.90;99.90;;;;;;4989632;28;20870;-61
2024/01/27 06:01:03;;;;;;;99.83;10.20;;;0.90;99.90;;;;;;4987220;28;20172;-60
2024/01/27 06:03:29;;;;;;;64.63;8.53;;;0.90;99.90;;;;;;4987879;28;20490;-61
2024/01/27 06:05:55;;;;;;;131.03;10.23;;;0.90;99.90;;;;;;4986486;28;20759;-61
2024/01/27 06:08:20;;;;;;;47.60;7.03;;;0.80;99.90;;;;;;4988847;28;20168;-62
2024/01/27 06:10:47;;;;;;;47.33;7.47;;;0.80;99.90;;;;;;4988994;28;20172;-61
2024/01/27 06:13:12;;;;;;;112.30;9.90;;;0.80;99.90;;;;;;4988992;28;20224;-61
2024/01/27 06:15:39;;;;;;;25.93;8.20;;;0.80;99.90;;;;;;4983605;28;20431;-62
2024/01/27 06:18:04;;;;;;;55.90;9.63;;;0.80;99.90;;;;;;4987697;28;20203;-62
2024/01/27 06:20:30;;;;;;;170.57;15.03;;;0.80;99.90;;;;;;4989371;28;20432;-61
2024/01/27 06:22:56;;;;;;;101.63;10.53;;;0.80;99.90;;;;;;4989267;28;20173;-61
2024/01/27 06:25:21;;;;;;;47.77;9.50;;;0.80;99.90;;;;;;4988771;28;20671;-60
2024/01/27 06:27:47;;;;;;;235.53;14.33;;;0.80;99.90;;;;;;4981021;28;20192;-62
2024/01/27 06:30:14;;;;;;;114.83;11.13;;;0.80;99.90;;;;;;4987924;28;20205;-63
2024/01/27 06:32:40;;;;;;;35.77;7.23;;;0.80;99.90;;;;;;4989416;28;20262;-62
2024/01/27 06:35:05;;;;;;;30.07;7.60;;;0.80;99.90;;;;;;4984123;28;20998;-60
2024/01/27 06:37:31;;;;;;;45.60;8.03;;;0.70;99.90;;;;;;4982611;28;20251;-60
2024/01/27 06:39:56;;;;;;;36.13;7.40;;;0.70;99.90;;;;;;4985017;28;20203;-59
2024/01/27 06:42:22;;;;;;;21.90;7.17;;;0.70;99.90;;;;;;4988763;28;20172;-56
2024/01/27 06:44:48;;;;;;;209.13;15.37;;;0.80;99.90;;;;;;4986564;28;20175;-59
2024/01/27 06:47:14;;;;;;;104.77;9.10;;;0.80;99.90;;;;;;4988601;28;20179;-57
2024/01/27 06:49:39;;;;;;;33.80;6.70;;;0.80;99.90;;;;;;4986174;28;20644;-59
2024/01/27 06:52:05;;;;;;;49.03;7.70;;;0.80;99.90;;;;;;4984915;28;20439;-59
2024/01/27 06:54:30;;;;;;;24.10;6.70;;;0.80;99.90;;;;;;4986327;28;20203;-58
2024/01/27 06:56:56;;;;;;;40.37;7.10;;;0.80;99.90;;;;;;4988910;28;20690;-58
2024/01/27 06:59:22;;;;;;;200.20;11.60;;;0.80;99.90;;;;;;4989415;28;20199;-59
2024/01/27 07:01:48;;;;;;;144.63;13.90;;;0.80;99.90;;;;;;4986924;28;20226;-59
2024/01/27 07:04:14;;;;;;;19.93;6.90;;;0.80;99.90;;;;;;4987206;28;20974;-58
2024/01/27 07:06:40;;;;;;;29.93;7.00;;;0.70;99.90;;;;;;4986561;28;20447;-59
2024/01/27 07:09:06;;;;;;;51.17;7.17;;;0.70;99.90;;;;;;4992226;28;20454;-58
2024/01/27 07:11:32;;;;;;;124.00;10.07;;;0.70;99.90;;;;;;4988503;28;20198;-60
2024/01/27 07:13:58;;;;;;;27.67;6.63;;;0.70;99.90;;;;;;4984169;28;20438;-59
2024/01/27 07:16:24;;;;;;;41.53;7.63;;;0.70;99.90;;;;;;4986660;28;20459;-58
2024/01/27 07:18:51;;;;;;;25.77;5.70;;;0.70;99.90;;;;;;4985246;28;20282;-57
2024/01/27 07:21:17;;;;;;;30.00;5.97;;;0.60;99.90;;;;;;4987598;28;20805;-58
2024/01/27 07:23:45;;;;;;;52.10;7.20;;;0.60;99.90;;;;;;4985249;28;20423;-59
2024/01/27 07:26:12;;;;;;;46.80;6.77;;;0.60;99.90;;;;;;4984464;28;20465;-58
2024/01/27 07:28:38;;;;;;;23.97;5.30;;;0.60;99.90;;;;;;4987641;28;21321;-59
2024/01/27 07:31:05;;;;;;;91.00;7.10;;;0.60;99.90;;;;;;4984933;28;20433;-58
2024/01/27 07:33:30;;;;;;;13.57;4.87;;;0.60;99.90;;;;;;4986072;28;20951;-59
2024/01/27 07:35:57;;;;;;;72.00;7.77;;;0.50;99.90;;;;;;4984338;28;20443;-59
2024/01/27 07:38:22;;;;;;;26.13;6.10;;;0.50;99.90;;;;;;4982991;28;20631;-59
2024/01/27 07:40:48;;;;;;;63.50;6.50;;;0.50;99.90;;;;;;4987481;28;20439;-59
2024/01/27 07:43:13;;;;;;;33.07;7.87;;;0.40;99.90;;;;;;4987191;28;20184;-59
2024/01/27 07:45:39;;;;;;;66.67;8.17;;;0.50;99.90;;;;;;4994460;28;20226;-59
2024/01/27 07:48:05;;;;;;;90.53;8.33;;;0.50;99.90;;;;;;4989733;28;20211;-57
2024/01/27 07:50:31;;;;;;;94.07;12.83;;;0.50;99.90;;;;;;4989514;28;20187;-59
2024/01/27 07:52:57;;;;;;;39.07;7.30;;;0.50;99.90;;;;;;4988791;28;20445;-57
2024/01/27 07:55:23;;;;;;;50.63;7.07;;;0.50;99.90;;;;;;4993681;28;20671;-60
2024/01/27 07:57:48;;;;;;;78.10;7.83;;;0.50;99.90;;;;;;4989697;28;20456;-59
2024/01/27 08:00:14;;;;;;;162.73;13.40;;;0.50;99.90;;;;;;4989308;28;20549;-59
2024/01/27 08:02:40;;;;;;;113.87;8.47;;;0.50;99.90;;;;;;4991455;28;20489;-59
2024/01/27 08:05:06;;;;;;;218.07;14.10;;;0.50;99.90;;;;;;4988503;28;20180;-59
2024/01/27 08:07:32;;;;;;;40.93;6.87;;;0.40;99.90;;;;;;4989144;28;20187;-59
2024/01/27 08:09:58;;;;;;;87.03;8.27;;;0.40;99.90;;;;;;4989868;28;20925;-58
2024/01/27 08:12:24;;;;;;;83.50;8.17;;;0.40;99.90;;;;;;4991483;28;20713;-59
2024/01/27 08:14:50;;;;;;;76.40;7.40;;;0.50;99.90;;;;;;4991637;28;20435;-58
2024/01/27 08:17:15;;;;;;;37.77;7.90;;;0.50;99.90;;;;;;4986776;28;20254;-57
2024/01/27 08:19:41;;;;;;;93.03;8.80;;;0.50;99.90;;;;;;4990959;28;20455;-57
2024/01/27 08:22:09;;;;;;;92.53;9.30;;;0.50;99.90;;;;;;4985324;28;20199;-58
2024/01/27 08:24:34;;;;;;;73.53;8.20;;;0.50;99.90;;;;;;4990764;28;20179;-60
2024/01/27 08:27:01;;;;;;;79.00;10.17;;;0.50;99.90;;;;;;4987315;28;20971;-59
2024/01/27 08:29:26;;;;;;;44.93;7.77;;;0.50;99.90;;;;;;4990496;28;20266;-60
2024/01/27 08:31:52;;;;;;;84.90;9.40;;;0.50;99.90;;;;;;4987634;28;20845;-60
2024/01/27 08:34:18;;;;;;;111.27;13.13;;;0.50;99.90;;;;;;4983749;28;20187;-59
2024/01/27 08:36:43;;;;;;;50.67;9.70;;;0.40;99.90;;;;;;4977879;28;20261;-59
2024/01/27 08:39:09;;;;;;;70.17;8.20;;;0.40;99.90;;;;;;4977141;28;20583;-60
2024/01/27 08:41:35;;;;;;;195.30;13.07;;;0.40;99.90;;;;;;4988761;28;20559;-60
2024/01/27 08:44:00;;;;;;;160.10;10.37;;;0.40;99.90;;;;;;4985877;28;20257;-60
2024/01/27 08:46:26;;;;;;;34.23;5.67;;;0.40;99.90;;;;;;4985633;28;20747;-61
2024/01/27 08:48:52;;;;;;;175.73;12.60;;;0.40;99.90;;;;;;4985760;28;20462;-59
2024/01/27 08:51:18;;;;;;;87.23;6.90;;;0.40;99.90;;;;;;4988347;28;20195;-60
2024/01/27 08:53:48;;;;;;;34.33;6.40;;;0.40;99.90;;;;;;4986775;28;20322;-60
2024/01/27 08:56:17;;;;;;;14.33;4.90;;;0.50;99.90;;;;;;4988346;28;20185;-60
2024/01/27 08:58:47;;;;;;;86.10;9.20;;;0.50;99.90;;;;;;4984514;28;20505;-61
2024/01/27 09:01:15;;;;;;;294.03;16.00;;;0.50;99.90;;;;;;4984333;28;20466;-61
2024/01/27 09:03:40;;;;;;;120.23;9.23;;;0.60;99.90;;;;;;4988563;28;20438;-61
2024/01/27 09:06:07;;;;;;;35.70;6.93;;;0.60;99.90;;;;;;4985370;28;20438;-61
2024/01/27 09:08:34;;;;;;;106.20;9.03;;;0.60;99.90;;;;;;4986539;28;20253;-61
2024/01/27 09:11:00;;;;;;;61.77;7.80;;;0.60;99.90;;;;;;4984117;28;20455;-61
2024/01/27 09:13:26;;;;;;;66.27;8.30;;;0.60;99.90;;;;;;5006640;28;20496;-61
2024/01/27 09:15:52;;;;;;;21.57;6.30;;;0.60;99.90;;;;;;4983197;28;20519;-62
2024/01/27 09:18:18;;;;;;;257.33;15.90;;;0.60;99.90;;;;;;4986608;28;20717;-61
2024/01/27 09:20:43;;;;;;;69.87;8.73;;;0.60;99.90;;;;;;4983334;28;20199;-63
2024/01/27 09:23:09;;;;;;;89.23;10.10;;;0.60;99.90;;;;;;4986886;28;20218;-62
2024/01/27 09:25:34;;;;;;;32.53;7.83;;;0.70;99.90;;;;;;4987328;28;20667;-63
2024/01/27 09:28:01;;;;;;;145.20;11.53;;;0.70;99.90;;;;;;4984894;28;20188;-66
2024/01/27 09:30:27;;;;;;;43.60;6.87;;;0.80;99.90;;;;;;4986618;28;20207;-65
2024/01/27 09:32:52;;;;;;;58.80;8.13;;;0.80;99.90;;;;;;4986719;28;20796;-64
2024/01/27 09:35:18;;;;;;;223.90;15.50;;;0.80;99.90;;;;;;4982393;28;20434;-66
2024/01/27 09:37:46;;;;;;;164.87;13.53;;;0.80;99.90;;;;;;4984229;28;20281;-67
2024/01/27 09:40:12;;;;;;;66.00;7.10;;;0.80;99.90;;;;;;4987696;28;20203;-64
2024/01/27 09:42:41;;;;;;;163.93;11.50;;;0.80;99.90;;;;;;4984892;28;20438;-64
2024/01/27 09:45:09;;;;;;;149.13;9.87;;;0.80;99.90;;;;;;4982999;28;20516;-62
2024/01/27 09:47:36;;;;;;;30.87;7.40;;;0.80;99.90;;;;;;4986835;28;20444;-59
2024/01/27 09:50:02;;;;;;;19.67;6.40;;;0.80;99.90;;;;;;4985896;28;20536;-61
2024/01/27 09:52:28;;;;;;;78.80;11.90;;;0.80;99.90;;;;;;4988891;28;20438;-61
2024/01/27 09:54:53;;;;;;;51.90;7.77;;;0.90;99.90;;;;;;4985199;28;20231;-60
2024/01/27 09:57:20;;;;;;;24.27;7.00;;;0.90;99.90;;;;;;4986819;28;20303;-64
2024/01/27 09:59:49;;;;;;;100.23;11.60;;;1.00;99.90;;;;;;4984355;28;20200;-63
2024/01/27 10:02:17;;;;;;;139.87;10.20;;;1.10;99.90;;;;;;4988303;28;20942;-65
2024/01/27 10:04:45;;;;;;;39.87;7.60;;;1.10;99.90;;;;;;4986095;28;20566;-64
2024/01/27 10:07:11;;;;;;;17.93;7.03;;;1.20;99.90;;;;;;4987711;28;20434;-63
2024/01/27 10:09:36;;;;;;;18.57;6.53;;;1.20;99.90;;;;;;4985745;28;20452;-62
2024/01/27 10:12:03;;;;;;;11.43;7.20;;;1.30;99.90;;;;;;4986483;28;20184;-61
2024/01/27 10:14:41;;;;;;;16.60;7.20;;;1.40;99.90;;;;;;4987050;28;20186;-60
2024/01/27 10:17:11;;;;;;;62.43;8.77;;;1.60;99.90;;;;;;4984791;28;20960;-62
2024/01/27 10:19:37;;;;;;;49.53;8.00;;;1.70;99.90;;;;;;4982712;28;20452;-62
2024/01/27 10:22:03;;;;;;;9.73;5.70;;;1.80;99.90;;;;;;4977770;28;20996;-64
2024/01/27 10:24:29;;;;;;;20.47;5.47;;;1.80;99.90;;;;;;4981146;28;20667;-62
2024/01/27 10:27:03;;;;;;;19.27;4.90;;;1.80;99.90;;;;;;4980292;28;20460;-61
2024/01/27 10:29:29;;;;;;;19.13;5.13;;;1.90;99.90;;;;;;4982002;28;20464;-61
2024/01/27 10:31:54;;;;;;;20.60;5.27;;;1.90;99.90;;;;;;4981169;28;20428;-62
2024/01/27 10:34:20;;;;;;;11.33;6.17;;;1.90;99.90;;;;;;4981053;28;20496;-58
2024/01/27 10:36:46;;;;;;;16.50;7.63;;;2.00;99.90;;;;;;4980047;28;20200;-61
2024/01/27 10:39:20;;;;;;;17.90;6.33;;;2.00;99.90;;;;;;4980928;28;20199;-60
2024/01/27 10:41:46;;;;;;;15.87;8.00;;;2.10;99.90;;;;;;4977445;28;20180;-59
2024/01/27 10:44:19;;;;;;;13.60;7.23;;;2.20;99.90;;;;;;4986458;28;20436;-60
2024/01/27 10:46:47;;;;;;;13.67;8.13;;;2.30;99.90;;;;;;4982085;28;20443;-58
2024/01/27 10:49:15;;;;;;;11.80;8.43;;;2.40;99.90;;;;;;4980956;28;20444;-55
2024/01/27 10:51:50;;;;;;;16.30;7.60;;;2.50;99.90;;;;;;4983404;28;20994;-57
2024/01/27 10:54:23;;;;;;;13.40;7.23;;;2.60;99.90;;;;;;4987716;28;20435;-60
2024/01/27 10:56:51;;;;;;;9.90;6.47;;;2.70;99.90;;;;;;4981668;28;20452;-54
2024/01/27 10:59:21;;;;;;;9.47;6.20;;;2.80;99.90;;;;;;4981524;28;20481;-57
2024/01/27 11:01:50;;;;;;;8.20;5.63;;;2.90;99.90;;;;;;4984361;28;20420;-52
2024/01/27 11:04:16;;;;;;;8.93;6.20;;;3.00;99.90;;;;;;4978504;28;20506;-49
2024/01/27 11:06:43;;;;;;;11.50;6.23;;;3.10;99.90;;;;;;4978822;28;20428;-59
2024/01/27 11:09:09;;;;;;;10.77;7.47;;;3.20;99.90;;;;;;4988424;28;20484;-59
2024/01/27 11:11:36;;;;;;;8.83;6.60;;;3.30;99.90;;;;;;4981771;28;20955;-58
2024/01/27 11:14:01;;;;;;;11.10;6.50;;;3.40;99.90;;;;;;4983860;28;20432;-60
2024/01/27 11:16:28;;;;;;;11.13;6.53;;;3.50;99.90;;;;;;4985210;28;20813;-57
2024/01/27 11:18:54;;;;;;;9.57;5.97;;;3.60;99.90;;;;;;4988114;28;20177;-60
2024/01/27 11:21:20;;;;;;;8.50;5.90;;;3.80;99.90;;;;;;4984190;28;20470;-60
2024/01/27 11:23:47;;;;;;;9.13;5.63;;;3.90;99.90;;;;;;4977977;28;20441;-59
2024/01/27 11:26:19;;;;;;;14.20;7.57;;;4.00;99.90;;;;;;4985188;28;20185;-60
2024/01/27 11:28:44;;;;;;;12.60;6.90;;;4.20;99.90;;;;;;4984107;28;21033;-59
2024/01/27 11:31:11;;;;;;;9.13;6.63;;;4.40;99.90;;;;;;4985447;28;20420;-60
2024/01/27 11:33:44;;;;;;;11.07;6.07;;;4.70;99.90;;;;;;4982929;28;20185;-60
2024/01/27 11:36:22;;;;;;;12.00;7.27;;;5.00;99.90;;;;;;4986772;28;20444;-60
2024/01/27 11:38:49;;;;;;;8.50;5.20;;;5.20;99.90;;;;;;4985716;28;20467;-59
2024/01/27 11:41:28;;;;;;;9.23;6.47;;;5.30;99.90;;;;;;4984245;28;20455;-60
2024/01/27 11:43:55;;;;;;;9.40;6.70;;;5.50;99.90;;;;;;4985731;28;20930;-60
2024/01/27 11:46:21;;;;;;;17.27;8.17;;;5.50;99.90;;;;;;4987008;28;20520;-60
2024/01/27 11:48:48;;;;;;;8.53;5.80;;;5.60;99.90;;;;;;4979642;28;20464;-60
2024/01/27 11:51:14;;;;;;;9.43;6.10;;;5.70;99.90;;;;;;4980570;28;20436;-59
2024/01/27 11:53:40;;;;;;;11.37;7.00;;;5.70;99.90;;;;;;4985235;28;20428;-60
2024/01/27 11:56:06;;;;;;;14.70;5.80;;;5.80;99.90;;;;;;4984292;28;20224;-60
2024/01/27 11:58:32;;;;;;;9.43;5.03;;;6.00;99.90;;;;;;4978252;28;20634;-60
2024/01/27 12:00:58;;;;;;;11.40;5.93;;;6.00;99.90;;;;;;4988817;28;20922;-59
2024/01/27 12:03:25;;;;;;;11.77;5.30;;;6.20;99.90;;;;;;4986341;28;20420;-60
2024/01/27 12:05:50;;;;;;;9.10;5.70;;;6.30;99.90;;;;;;4987840;28;20169;-60
2024/01/27 12:08:17;;;;;;;10.63;5.40;;;6.40;99.90;;;;;;4984336;28;20987;-60
2024/01/27 12:10:43;;;;;;;12.10;4.13;;;6.50;99.90;;;;;;4989074;28;20173;-60
2024/01/27 12:13:09;;;;;;;7.10;4.33;;;6.60;99.90;;;;;;4987686;28;21260;-60
2024/01/27 12:15:34;;;;;;;4.90;3.80;;;6.70;99.90;;;;;;4981840;28;20184;-60
2024/01/27 12:18:00;;;;;;;9.13;4.13;;;6.80;99.90;;;;;;4978729;28;20204;-60
2024/01/27 12:20:26;;;;;;;10.73;5.73;;;6.90;99.90;;;;;;4985135;28;20321;-60
2024/01/27 12:23:06;;;;;;;12.00;6.53;;;7.00;99.90;;;;;;4989834;28;20213;-60
2024/01/27 12:25:31;;;;;;;8.97;4.20;;;7.10;99.90;;;;;;4989085;28;20172;-60
2024/01/27 12:28:01;;;;;;;7.67;4.10;;;7.20;99.90;;;;;;4987469;28;20456;-60
2024/01/27 12:30:27;;;;;;;7.63;3.23;;;7.20;99.90;;;;;;4991934;28;20197;-61
2024/01/27 12:32:53;;;;;;;6.00;3.10;;;7.30;99.90;;;;;;4987306;28;20404;-61
2024/01/27 12:35:18;;;;;;;6.33;3.50;;;7.30;99.90;;;;;;4984182;28;20264;-60
2024/01/27 12:37:44;;;;;;;5.17;2.57;;;7.20;99.90;;;;;;4988013;28;20291;-60
2024/01/27 12:40:23;;;;;;;6.80;2.50;;;7.10;99.90;;;;;;4989315;28;20189;-60